createdAt,value
2022-10-07T00:01:28.578Z,20.2
2022-10-07T00:03:45.451Z,19.9
2022-10-07T00:06:02.655Z,19.9
2022-10-07T00:08:17.941Z,19.8
2022-10-07T00:10:34.703Z,20.3
2022-10-07T00:12:51.723Z,19.9
2022-10-07T00:15:08.612Z,20.1
2022-10-07T00:17:25.519Z,20.1
2022-10-07T00:19:41.091Z,20
2022-10-07T00:21:57.934Z,20.3
2022-10-07T00:24:14.909Z,19.9
2022-10-07T00:26:32.003Z,20.1
2022-10-07T00:28:48.740Z,19.9
2022-10-07T00:31:06.545Z,19.9
2022-10-07T00:33:21.232Z,19.7
2022-10-07T00:35:39.223Z,20.2
2022-10-07T00:37:53.872Z,19.8
2022-10-07T00:40:10.823Z,20.3
2022-10-07T00:42:26.718Z,19.8
2022-10-07T00:44:43.547Z,20.1
2022-10-07T00:47:00.572Z,19.7
2022-10-07T00:49:17.558Z,19.9
2022-10-07T00:51:34.952Z,19.6
2022-10-07T00:53:51.475Z,19.5
2022-10-07T00:56:08.393Z,19.7
2022-10-07T00:58:25.377Z,19.8
2022-10-07T01:00:42.216Z,19.8
2022-10-07T01:02:59.169Z,19.6
2022-10-07T01:05:14.790Z,19.7
2022-10-07T01:07:31.575Z,20.1
2022-10-07T01:09:48.629Z,19.9
2022-10-07T01:12:06.136Z,19.8
2022-10-07T01:14:22.648Z,19.8
2022-10-07T01:16:39.736Z,19.6
2022-10-07T01:18:56.460Z,19.8
2022-10-07T01:21:13.562Z,20.1
2022-10-07T01:23:30.268Z,19.9
2022-10-07T01:25:47.787Z,19.8
2022-10-07T01:28:04.817Z,19.7
2022-10-07T01:30:21.191Z,19.9
2022-10-07T01:32:39.166Z,19.6
2022-10-07T01:34:55.066Z,19.6
2022-10-07T01:37:11.932Z,19.8
2022-10-07T01:39:28.874Z,19.5
2022-10-07T01:41:45.843Z,19.9
2022-10-07T01:44:02.854Z,19.6
2022-10-07T01:46:19.889Z,19.8
2022-10-07T01:48:35.409Z,19.8
2022-10-07T01:50:52.211Z,20.3
2022-10-07T01:53:09.390Z,19.6
2022-10-07T01:55:26.908Z,19.6
2022-10-07T01:57:43.599Z,19.8
2022-10-07T02:00:00.274Z,19.8
2022-10-07T02:02:17.415Z,19.7
2022-10-07T02:04:34.153Z,19.6
2022-10-07T02:06:49.753Z,19.6
2022-10-07T02:09:06.569Z,20.1
2022-10-07T02:11:23.575Z,19.7
2022-10-07T02:13:40.574Z,19.6
2022-10-07T02:15:57.783Z,19.6
2022-10-07T02:18:14.696Z,19.7
2022-10-07T02:20:31.597Z,19.6
2022-10-07T02:22:48.450Z,19.8
2022-10-07T02:25:05.823Z,19.7
2022-10-07T02:27:22.516Z,19.8
2022-10-07T02:29:39.374Z,19.8
2022-10-07T02:31:56.393Z,19.5
2022-10-07T02:34:17.554Z,19.6
2022-10-07T02:36:30.329Z,19.4
2022-10-07T02:38:47.289Z,19.6
2022-10-07T02:41:04.250Z,19.6
2022-10-07T02:43:21.212Z,19.8
2022-10-07T02:45:38.234Z,19.6
2022-10-07T02:47:55.330Z,19.7
2022-10-07T02:50:12.068Z,19.6
2022-10-07T02:52:28.997Z,19.5
2022-10-07T02:54:44.710Z,19.4
2022-10-07T02:57:00.545Z,19.9
2022-10-07T02:59:17.636Z,19.9
2022-10-07T03:01:34.758Z,19.3
2022-10-07T03:03:51.803Z,19.5
2022-10-07T03:06:08.679Z,19.8
2022-10-07T03:08:25.792Z,19.8
2022-10-07T03:10:42.650Z,19.4
2022-10-07T03:12:59.691Z,19.5
2022-10-07T03:15:16.630Z,19.4
2022-10-07T03:17:33.604Z,19.4
2022-10-07T03:19:49.534Z,19.4
2022-10-07T03:22:05.299Z,19.9
2022-10-07T03:24:22.264Z,19.8
2022-10-07T03:26:39.272Z,19.4
2022-10-07T03:28:56.347Z,19.5
2022-10-07T03:31:13.384Z,19.5
2022-10-07T03:33:30.593Z,19.5
2022-10-07T03:35:46.215Z,19.7
2022-10-07T03:38:02.082Z,19.8
2022-10-07T03:40:19.011Z,19.8
2022-10-07T03:42:35.145Z,19.3
2022-10-07T03:44:51.305Z,19.8
2022-10-07T03:47:10.605Z,19.7
2022-10-07T03:49:24.432Z,19.9
2022-10-07T03:51:40.952Z,19.8
2022-10-07T03:53:58.015Z,19.3
2022-10-07T03:56:14.081Z,19.1
2022-10-07T03:58:30.993Z,19.8
2022-10-07T04:00:48.017Z,19.3
2022-10-07T04:03:05.027Z,19.3
2022-10-07T04:05:22.019Z,19.3
2022-10-07T04:07:39.127Z,19.3
2022-10-07T04:09:54.860Z,19.4
2022-10-07T04:12:11.873Z,19.8
2022-10-07T04:14:28.897Z,19.2
2022-10-07T04:16:46.188Z,19.1
2022-10-07T04:19:03.685Z,19.4
2022-10-07T04:21:20.086Z,19.7
2022-10-07T04:23:37.117Z,19.5
2022-10-07T04:25:52.877Z,19.6
2022-10-07T04:28:23.590Z,19.7
2022-10-07T04:30:40.597Z,19.3
2022-10-07T04:32:57.583Z,19.2
2022-10-07T04:35:14.622Z,19.3
2022-10-07T04:37:31.736Z,19.3
2022-10-07T04:40:02.944Z,19.3
2022-10-07T04:42:19.734Z,19.3
2022-10-07T04:44:36.668Z,19.3
2022-10-07T04:46:53.676Z,19.3
2022-10-07T04:49:11.238Z,19.3
2022-10-07T04:51:27.936Z,19.3
2022-10-07T04:53:45.341Z,19
2022-10-07T04:56:01.754Z,19.3
2022-10-07T04:58:18.774Z,19.2
2022-10-07T05:00:35.982Z,19.3
2022-10-07T05:02:52.805Z,19.3
2022-10-07T05:05:09.821Z,19.3
2022-10-07T05:07:26.888Z,19.1
2022-10-07T05:09:44.654Z,19.4
2022-10-07T05:12:00.982Z,19.3
2022-10-07T05:14:17.972Z,19.3
2022-10-07T05:16:34.950Z,19.2
2022-10-07T05:18:50.654Z,19.3
2022-10-07T05:21:07.537Z,19.6
2022-10-07T05:23:28.282Z,19.2
2022-10-07T05:25:41.725Z,19.1
2022-10-07T05:27:59.307Z,19.1
2022-10-07T05:30:15.788Z,19.3
2022-10-07T05:32:31.593Z,19.2
2022-10-07T05:34:48.284Z,19.8
2022-10-07T05:37:05.389Z,19.2
2022-10-07T05:39:22.370Z,19.4
2022-10-07T05:41:45.172Z,19.3
2022-10-07T05:43:54.156Z,19.8
2022-10-07T05:46:11.222Z,20.1
2022-10-07T05:48:28.106Z,19.5
2022-10-07T05:50:45.158Z,19.4
2022-10-07T05:53:02.135Z,19.5
2022-10-07T05:55:19.447Z,19.6
2022-10-07T05:57:36.022Z,19.7
2022-10-07T05:59:53.003Z,19.6
2022-10-07T06:02:10.097Z,19.6
2022-10-07T06:04:25.596Z,19.5
2022-10-07T06:06:41.441Z,20.2
2022-10-07T06:08:57.415Z,20.3
2022-10-07T06:11:14.353Z,20.4
2022-10-07T06:13:31.492Z,20.1
2022-10-07T06:15:47.175Z,20.2
2022-10-07T06:18:04.050Z,20.6
2022-10-07T06:20:21.073Z,20.4
2022-10-07T06:22:38.035Z,20.6
2022-10-07T06:24:54.937Z,20.6
2022-10-07T06:27:11.845Z,20.4
2022-10-07T06:29:28.780Z,20.8
2022-10-07T06:31:45.603Z,20.8
2022-10-07T06:34:02.509Z,21.1
2022-10-07T06:36:19.289Z,20.8
2022-10-07T06:38:35.938Z,20.9
2022-10-07T06:40:53.109Z,20.9
2022-10-07T06:45:26.211Z,21.3
2022-10-07T06:47:43.247Z,21.3
2022-10-07T06:49:59.560Z,21.2
2022-10-07T06:52:16.229Z,21.4
2022-10-07T06:54:32.700Z,21.3
2022-10-07T06:56:49.263Z,21.4
2022-10-07T06:59:29.820Z,21.4
2022-10-07T07:01:46.291Z,21.8
2022-10-07T07:04:03.039Z,21.8
2022-10-07T07:06:18.179Z,21.8
2022-10-07T07:08:33.274Z,22.3
2022-10-07T07:10:49.723Z,22.3
2022-10-07T07:13:08.184Z,22.1
2022-10-07T07:15:23.340Z,21.9
2022-10-07T07:17:38.383Z,22.3
2022-10-07T07:19:55.253Z,22.2
2022-10-07T07:22:12.176Z,22.2
2022-10-07T07:24:27.052Z,22.3
2022-10-07T07:26:43.409Z,22.7
2022-10-07T07:29:00.206Z,22.6
2022-10-07T07:31:16.703Z,22.4
2022-10-07T07:33:33.107Z,22.6
2022-10-07T07:35:48.083Z,22.6
2022-10-07T07:38:03.069Z,23
2022-10-07T07:40:18.202Z,23
2022-10-07T07:42:33.309Z,23.1
2022-10-07T07:44:48.544Z,23.1
2022-10-07T07:47:03.638Z,23.2
2022-10-07T07:49:19.067Z,23.1
2022-10-07T07:51:34.425Z,23.3
2022-10-07T07:53:49.536Z,23.3
2022-10-07T07:56:05.908Z,23.3
2022-10-07T07:58:22.530Z,23.2
2022-10-07T08:00:39.271Z,23
2022-10-07T08:02:54.854Z,23.4
2022-10-07T08:05:11.086Z,23.6
2022-10-07T08:07:27.075Z,23.6
2022-10-07T08:09:43.411Z,23.4
2022-10-07T08:11:58.337Z,23.9
2022-10-07T08:14:13.395Z,23.7
2022-10-07T08:16:28.422Z,23.9
2022-10-07T08:18:44.647Z,23.8
2022-10-07T08:20:59.750Z,23.6
2022-10-07T08:23:14.587Z,23.9
2022-10-07T08:25:29.894Z,23.9
2022-10-07T08:27:45.056Z,23.9
2022-10-07T08:30:00.145Z,23.9
2022-10-07T08:32:15.213Z,24.1
2022-10-07T08:34:30.645Z,24.2
2022-10-07T08:36:46.032Z,24.1
2022-10-07T08:39:01.122Z,24.3
2022-10-07T08:41:16.297Z,24.1
2022-10-07T08:43:31.678Z,24.3
2022-10-07T08:45:47.331Z,24.1
2022-10-07T08:48:01.968Z,24.1
2022-10-07T08:50:19.652Z,24.3
2022-10-07T08:52:32.564Z,24.4
2022-10-07T08:54:48.026Z,24.4
2022-10-07T08:57:03.236Z,24.3
2022-10-07T08:59:18.602Z,24.5
2022-10-07T09:01:33.867Z,24.6
2022-10-07T09:03:49.386Z,24.4
2022-10-07T09:06:04.698Z,24.5
2022-10-07T09:08:19.911Z,24.6
2022-10-07T09:10:35.489Z,24.5
2022-10-07T09:12:51.009Z,24.5
2022-10-07T09:15:06.452Z,24.6
2022-10-07T09:17:21.837Z,24.6
2022-10-07T09:19:37.627Z,24.5
2022-10-07T09:21:53.263Z,24.6
2022-10-07T09:24:08.835Z,24.6
2022-10-07T09:26:24.277Z,24.6
2022-10-07T09:28:40.208Z,24.4
2022-10-07T09:30:55.649Z,24.5
2022-10-07T09:33:11.182Z,24.6
2022-10-07T09:35:27.086Z,24.4
2022-10-07T09:37:43.097Z,24.6
2022-10-07T09:39:58.460Z,24.6
2022-10-07T09:42:14.070Z,24.6
2022-10-07T09:44:30.674Z,24.4
2022-10-07T09:46:45.951Z,23.8
2022-10-07T09:49:01.592Z,24.6
2022-10-07T09:51:16.998Z,24.7
2022-10-07T09:53:32.782Z,24.7
2022-10-07T09:55:48.488Z,24.6
2022-10-07T09:58:04.185Z,24.4
2022-10-07T10:00:20.328Z,24.4
2022-10-07T10:02:36.098Z,24.5
2022-10-07T10:04:51.956Z,24.3
2022-10-07T10:07:08.020Z,24.4
2022-10-07T10:09:23.775Z,24.5
2022-10-07T10:11:39.540Z,24.3
2022-10-07T10:13:55.829Z,24.2
2022-10-07T10:16:11.548Z,24.4
2022-10-07T10:18:27.255Z,24.3
2022-10-07T10:20:43.334Z,24.4
2022-10-07T10:22:59.069Z,24.3
2022-10-07T10:25:15.265Z,24.1
2022-10-07T10:27:31.052Z,24.3
2022-10-07T10:29:47.216Z,24.2
2022-10-07T10:32:03.074Z,24.3
2022-10-07T10:34:19.195Z,24.3
2022-10-07T10:36:35.053Z,24.1
2022-10-07T10:38:50.854Z,24.2
2022-10-07T10:41:06.970Z,24.1
2022-10-07T10:43:22.890Z,24.1
2022-10-07T10:45:38.984Z,24.2
2022-10-07T10:47:54.884Z,24.2
2022-10-07T10:50:10.853Z,24.1
2022-10-07T10:52:27.014Z,24
2022-10-07T10:54:42.923Z,24.1
2022-10-07T10:56:58.831Z,24.1
2022-10-07T10:59:14.962Z,24
2022-10-07T11:01:30.953Z,24.1
2022-10-07T11:03:46.655Z,23.9
2022-10-07T11:06:02.757Z,23.8
2022-10-07T11:08:18.632Z,24
2022-10-07T11:10:34.780Z,23.9
2022-10-07T11:12:51.133Z,23.8
2022-10-07T11:15:06.767Z,23.6
2022-10-07T11:17:22.633Z,23.8
2022-10-07T11:19:38.864Z,23.8
2022-10-07T11:21:54.735Z,23.8
2022-10-07T11:24:10.553Z,23.8
2022-10-07T11:26:28.314Z,23.8
2022-10-07T11:28:42.846Z,23.8
2022-10-07T11:30:58.797Z,24
2022-10-07T11:33:14.654Z,23.8
2022-10-07T11:35:30.784Z,23.9
2022-10-07T11:37:46.922Z,23.8
2022-10-07T11:40:02.844Z,23.9
2022-10-07T11:42:18.761Z,23.7
2022-10-07T11:44:35.089Z,23.8
2022-10-07T11:46:51.086Z,23.6
2022-10-07T11:49:06.548Z,23.6
2022-10-07T11:51:22.802Z,23.7
2022-10-07T11:53:38.614Z,23.8
2022-10-07T11:55:55.324Z,23.7
2022-10-07T11:58:10.702Z,23.8
2022-10-07T12:00:26.818Z,23.8
2022-10-07T12:02:42.847Z,23.7
2022-10-07T12:04:58.819Z,23.6
2022-10-07T12:07:14.861Z,23.6
2022-10-07T12:09:30.663Z,23.6
2022-10-07T12:11:46.693Z,23.5
2022-10-07T12:14:02.703Z,23.7
2022-10-07T12:16:18.896Z,23.5
2022-10-07T12:18:34.720Z,23.4
2022-10-07T12:20:50.834Z,23.6
2022-10-07T12:23:07.096Z,23.5
2022-10-07T12:25:22.981Z,23.6
2022-10-07T12:27:38.848Z,23.4
2022-10-07T12:29:55.186Z,23.4
2022-10-07T12:32:10.919Z,23.3
2022-10-07T12:34:26.905Z,23.4
2022-10-07T12:36:43.071Z,23.3
2022-10-07T12:38:58.941Z,23.4
2022-10-07T12:41:15.165Z,23.3
2022-10-07T12:43:31.059Z,23.3
2022-10-07T12:45:47.254Z,23.3
2022-10-07T12:48:03.061Z,23.3
2022-10-07T12:50:19.205Z,23.3
2022-10-07T12:52:35.058Z,23.3
2022-10-07T12:54:51.093Z,23.3
2022-10-07T12:57:07.272Z,23.3
2022-10-07T12:59:23.142Z,23.3
2022-10-07T13:01:39.586Z,23.3
2022-10-07T13:03:55.253Z,23.2
2022-10-07T13:06:11.392Z,23.1
2022-10-07T13:08:27.720Z,23.1
2022-10-07T13:10:43.465Z,23.3
2022-10-07T13:12:59.385Z,23.2
2022-10-07T13:15:15.600Z,23.2
2022-10-07T13:17:31.493Z,23.1
2022-10-07T13:19:47.346Z,23.1
2022-10-07T13:22:03.542Z,23.2
2022-10-07T13:24:19.482Z,23.3
2022-10-07T13:26:35.681Z,23.2
2022-10-07T13:28:52.152Z,23.1
2022-10-07T13:31:07.817Z,23.1
2022-10-07T13:33:23.709Z,23
2022-10-07T13:35:40.052Z,23
2022-10-07T13:37:55.754Z,22.9
2022-10-07T13:40:11.669Z,23
2022-10-07T13:42:27.852Z,22.9
2022-10-07T13:44:43.934Z,22.9
2022-10-07T13:46:59.976Z,22.9
2022-10-07T13:49:15.893Z,22.9
2022-10-07T13:51:32.132Z,22.9
2022-10-07T13:53:48.418Z,22.9
2022-10-07T13:56:04.306Z,23.1
2022-10-07T13:58:20.439Z,22.9
2022-10-07T14:00:36.357Z,23.1
2022-10-07T14:02:52.818Z,22.8
2022-10-07T14:05:08.325Z,22.9
2022-10-07T14:07:24.530Z,22.9
2022-10-07T14:09:40.484Z,22.9
2022-10-07T14:11:56.565Z,22.9
2022-10-07T14:14:12.587Z,22.9
2022-10-07T14:16:28.926Z,22.8
2022-10-07T14:18:44.684Z,22.7
2022-10-07T14:21:01.104Z,22.9
2022-10-07T14:23:16.998Z,22.8
2022-10-07T14:25:32.807Z,22.7
2022-10-07T14:27:49.210Z,22.9
2022-10-07T14:30:04.980Z,22.8
2022-10-07T14:32:21.168Z,22.8
2022-10-07T14:34:37.059Z,22.6
2022-10-07T14:36:53.239Z,22.8
2022-10-07T14:39:09.484Z,22.7
2022-10-07T14:41:25.917Z,22.8
2022-10-07T14:43:41.575Z,21.9
2022-10-07T14:45:57.601Z,22.8
2022-10-07T14:48:13.899Z,22.7
2022-10-07T14:50:29.432Z,22.1
2022-10-07T14:52:45.375Z,22.6
2022-10-07T14:55:01.580Z,22.6
2022-10-07T14:57:17.435Z,22.3
2022-10-07T14:59:33.750Z,22.7
2022-10-07T15:01:49.505Z,22.2
2022-10-07T15:04:05.580Z,22.6
2022-10-07T15:06:21.221Z,22.1
2022-10-07T15:08:37.478Z,22.8
2022-10-07T15:10:52.850Z,22
2022-10-07T15:13:13.053Z,22.6
2022-10-07T15:15:24.824Z,22.3
2022-10-07T15:17:41.681Z,22.6
2022-10-07T15:19:57.053Z,22.4
2022-10-07T15:22:13.731Z,22.6
2022-10-07T15:24:29.296Z,21.8
2022-10-07T15:26:45.699Z,22.6
2022-10-07T15:29:02.361Z,22.2
2022-10-07T15:31:18.026Z,22.1
2022-10-07T15:33:34.385Z,22.4
2022-10-07T15:35:50.829Z,22
2022-10-07T15:38:07.705Z,22.3
2022-10-07T15:40:24.257Z,22.4
2022-10-07T15:42:41.067Z,22.1
2022-10-07T15:44:57.585Z,22.3
2022-10-07T15:47:14.226Z,22.3
2022-10-07T15:49:30.771Z,22.5
2022-10-07T15:51:47.521Z,22.6
2022-10-07T15:54:03.999Z,22.5
2022-10-07T15:56:20.627Z,22.4
2022-10-07T15:58:37.403Z,22.3
2022-10-07T16:00:53.968Z,22.3
2022-10-07T16:03:10.726Z,22.4
2022-10-07T16:05:27.355Z,22.1
2022-10-07T16:07:44.061Z,22.2
2022-10-07T16:10:00.972Z,22.3
2022-10-07T16:12:16.232Z,22.3
2022-10-07T16:14:32.909Z,22.4
2022-10-07T16:16:48.511Z,22.1
2022-10-07T16:19:04.165Z,22.1
2022-10-07T16:21:20.842Z,22.2
2022-10-07T16:23:37.995Z,21.9
2022-10-07T16:25:54.791Z,22.1
2022-10-07T16:28:12.166Z,22
2022-10-07T16:30:28.959Z,22
2022-10-07T16:32:45.873Z,22.1
2022-10-07T16:35:02.543Z,21.9
2022-10-07T16:37:19.529Z,21.9
2022-10-07T16:39:36.297Z,22
2022-10-07T16:41:53.052Z,21.9
2022-10-07T16:44:10.082Z,21.9
2022-10-07T16:46:27.056Z,21.9
2022-10-07T16:48:44.049Z,21.8
2022-10-07T16:51:00.824Z,21.7
2022-10-07T16:53:17.927Z,21.9
2022-10-07T16:55:34.888Z,21.8
2022-10-07T16:57:51.662Z,22
2022-10-07T17:00:06.984Z,21.7
2022-10-07T17:02:24.062Z,21.9
2022-10-07T17:04:40.936Z,21.4
2022-10-07T17:06:57.803Z,21.9
2022-10-07T17:09:13.472Z,21.8
2022-10-07T17:11:28.934Z,21.9
2022-10-07T17:13:46.049Z,22.1
2022-10-07T17:16:03.098Z,21.9
2022-10-07T17:18:20.128Z,21.7
2022-10-07T17:20:36.983Z,21.6
2022-10-07T17:22:54.052Z,21.8
2022-10-07T17:25:10.917Z,21.8
2022-10-07T17:27:27.795Z,21.8
2022-10-07T17:29:44.803Z,21.7
2022-10-07T17:32:01.680Z,21.5
2022-10-07T17:34:18.766Z,21.5
2022-10-07T17:36:35.587Z,21.6
2022-10-07T17:38:52.584Z,21.5
2022-10-07T17:41:09.647Z,21.4
2022-10-07T17:43:26.511Z,21.6
2022-10-07T17:45:41.264Z,21.4
2022-10-07T17:47:58.886Z,21.8
2022-10-07T17:50:15.771Z,21.3
2022-10-07T17:52:32.608Z,21.4
2022-10-07T17:54:49.837Z,21.5
2022-10-07T17:57:06.642Z,21.6
2022-10-07T17:59:23.716Z,21.4
2022-10-07T18:01:40.469Z,21.4
2022-10-07T18:03:57.642Z,21.6
2022-10-07T18:06:14.446Z,21.8
2022-10-07T18:08:31.523Z,21.3
2022-10-07T18:10:48.393Z,21.4
2022-10-07T18:13:05.163Z,21.3
2022-10-07T18:15:22.267Z,21.5
2022-10-07T18:17:39.133Z,21.5
2022-10-07T18:19:56.161Z,21.4
2022-10-07T18:22:13.108Z,21.4
2022-10-07T18:24:30.228Z,21.4
2022-10-07T18:26:47.264Z,21.4
2022-10-07T18:29:04.161Z,21.4
2022-10-07T18:31:21.055Z,21.2
2022-10-07T18:33:36.716Z,21.2
2022-10-07T18:35:52.352Z,21.3
2022-10-07T18:38:09.137Z,21.4
2022-10-07T18:40:26.323Z,21.1
2022-10-07T18:45:00.587Z,21.2
2022-10-07T18:47:17.427Z,21.4
2022-10-07T18:49:33.104Z,21.3
2022-10-07T18:51:48.754Z,21.4
2022-10-07T18:54:05.965Z,21.3
2022-10-07T18:56:22.949Z,21.1
2022-10-07T18:58:40.073Z,20.9
2022-10-07T19:00:57.291Z,21.3
2022-10-07T19:03:13.938Z,21.2
2022-10-07T19:05:33.738Z,21.3
2022-10-07T19:07:48.402Z,21.2
2022-10-07T19:10:05.043Z,21.3
2022-10-07T19:14:39.133Z,21.1
2022-10-07T19:16:56.075Z,21.1
2022-10-07T19:19:13.180Z,21.2
2022-10-07T19:21:30.045Z,21.1
2022-10-07T19:23:46.917Z,21
2022-10-07T19:26:04.059Z,20.9
2022-10-07T19:28:21.060Z,21
2022-10-07T19:30:38.092Z,21.2
2022-10-07T19:32:55.345Z,20.8
2022-10-07T19:35:12.218Z,20.9
2022-10-07T19:37:29.165Z,21
2022-10-07T19:39:46.255Z,21
2022-10-07T19:42:03.203Z,21.1
2022-10-07T19:44:20.063Z,21.3
2022-10-07T19:46:37.309Z,20.8
2022-10-07T19:51:09.803Z,21
2022-10-07T19:53:26.830Z,20.6
2022-10-07T19:55:43.971Z,20.8
2022-10-07T19:58:00.932Z,21
2022-10-07T20:00:18.089Z,21.1
2022-10-07T20:02:35.206Z,20.8
2022-10-07T20:04:52.112Z,20.9
2022-10-07T20:07:09.155Z,20.8
2022-10-07T20:09:26.016Z,20.9
2022-10-07T20:11:43.155Z,20.9
2022-10-07T20:13:58.773Z,20.9
2022-10-07T20:16:15.829Z,21.1
2022-10-07T20:18:32.973Z,20.9
2022-10-07T20:20:49.946Z,20.9
2022-10-07T20:23:06.918Z,20.8
2022-10-07T20:25:24.055Z,20.8
2022-10-07T20:27:41.027Z,21
2022-10-07T20:29:57.975Z,20.7
2022-10-07T20:32:13.683Z,20.9
2022-10-07T20:34:30.488Z,21.1
2022-10-07T20:36:47.715Z,20.6
2022-10-07T20:39:04.831Z,20.4
2022-10-07T20:41:20.531Z,20.6
2022-10-07T20:43:36.290Z,20.9
2022-10-07T20:45:53.619Z,20.9
2022-10-07T20:48:10.491Z,20.4
2022-10-07T20:50:27.805Z,20.5
2022-10-07T20:52:44.985Z,20.4
2022-10-07T20:55:01.838Z,20.5
2022-10-07T20:57:18.932Z,20.5
2022-10-07T20:59:35.872Z,20.7
2022-10-07T21:01:53.091Z,20.8
2022-10-07T21:04:10.514Z,20.7
2022-10-07T21:06:27.195Z,20.4
2022-10-07T21:08:44.173Z,20.6
2022-10-07T21:11:01.196Z,20.6
2022-10-07T21:13:16.765Z,20.6
2022-10-07T21:15:33.725Z,20.8
2022-10-07T21:17:50.898Z,20.3
2022-10-07T21:20:07.745Z,20.4
2022-10-07T21:22:23.619Z,20.8
2022-10-07T21:24:40.559Z,20.8
2022-10-07T21:26:57.868Z,20.4
2022-10-07T21:29:14.820Z,20.6
2022-10-07T21:31:32.031Z,20.6
2022-10-07T21:33:49.001Z,20.6
2022-10-07T21:36:06.183Z,20.4
2022-10-07T21:38:23.100Z,20.4
2022-10-07T21:40:38.661Z,20.6
2022-10-07T21:42:55.887Z,20.8
2022-10-07T21:45:12.896Z,20.4
2022-10-07T21:47:30.001Z,20.4
2022-10-07T21:49:47.243Z,20.7
2022-10-07T21:52:04.436Z,20.7
2022-10-07T21:54:21.356Z,20.4
2022-10-07T21:56:38.645Z,20.5
2022-10-07T21:58:55.506Z,20.4
2022-10-07T22:01:12.541Z,20.6
2022-10-07T22:05:03.121Z,20.4
2022-10-07T22:07:19.735Z,20.4
2022-10-07T22:09:36.748Z,20.3
2022-10-07T22:11:53.653Z,20.5
2022-10-07T22:14:12.691Z,20.3
2022-10-07T22:16:27.591Z,20.6
2022-10-07T22:18:45.005Z,20.4
2022-10-07T22:21:01.499Z,20.3
2022-10-07T22:23:18.457Z,20.3
2022-10-07T22:25:35.444Z,20.5
2022-10-07T22:27:52.268Z,20.3
2022-10-07T22:30:09.292Z,20.3
2022-10-07T22:32:26.206Z,20.4
2022-10-07T22:34:43.114Z,20.5
2022-10-07T22:36:58.755Z,20.4
2022-10-07T22:39:15.693Z,20.6
2022-10-07T22:41:32.670Z,20.1
2022-10-07T22:43:48.535Z,20.4
2022-10-07T22:46:04.461Z,20.6
2022-10-07T22:48:20.461Z,20.6
2022-10-07T22:50:36.829Z,20.4
2022-10-07T22:52:53.608Z,20.6
2022-10-07T22:55:10.715Z,20.1
2022-10-07T22:57:27.770Z,20.1
2022-10-07T22:59:44.752Z,20.3
2022-10-07T23:02:01.792Z,20.1
2022-10-07T23:04:18.633Z,20.1
2022-10-07T23:06:35.706Z,20.2
2022-10-07T23:08:52.674Z,20.1
2022-10-07T23:11:09.575Z,20.2
2022-10-07T23:13:26.619Z,20.1
2022-10-07T23:15:43.611Z,20.3
2022-10-07T23:18:00.651Z,20.1
2022-10-07T23:20:17.454Z,20.2
2022-10-07T23:22:34.431Z,20.4
2022-10-07T23:24:51.469Z,20.1
2022-10-07T23:27:08.513Z,20.3
2022-10-07T23:29:25.416Z,20.3
2022-10-07T23:31:41.125Z,20.2
2022-10-07T23:33:57.965Z,20.4
2022-10-07T23:36:15.424Z,20.1
2022-10-07T23:38:31.939Z,20.3
2022-10-07T23:40:48.927Z,20
2022-10-07T23:43:06.001Z,20
2022-10-07T23:45:22.860Z,20
2022-10-07T23:47:39.805Z,20.1
2022-10-07T23:49:56.936Z,20.2
2022-10-07T23:52:12.603Z,20.2
2022-10-07T23:54:29.513Z,20.4
2022-10-07T23:56:45.361Z,20
2022-10-07T23:59:01.738Z,20.4
